Time;durP1;ratioP1;P1;durP2;ratioP2;P2;SDS_P1;SDS_P2;PMS_P1;PMS_P2;Temp;Humidity;BMP_temperature;BMP_pressure;BME280_temperature;BME280_humidity;BME280_pressure;Samples;Min_cycle;Max_cycle;Signal;HPM_P1;HPM_P2
2021/01/22 00:03:27;;;;;;;71.22;29.57;;;;;;;-0.56;84.67;99244.67;1745313;79;22427;31
2021/01/22 00:06:06;;;;;;;74.50;26.70;;;;;;;-0.59;84.39;99247.17;1736668;79;21283;31
2021/01/22 00:34:30;;;;;;;76.37;31.33;;;;;;;-0.79;85.23;99240.34;1727559;79;21492;31
2021/01/22 00:43:26;;;;;;;71.55;28.47;;;;;;;-0.89;83.75;99232.89;1739068;79;21193;-85
2021/01/22 00:52:29;;;;;;;86.47;30.97;;;;;;;-0.99;83.95;99230.53;1713593;80;22890;31
2021/01/22 01:20:33;;;;;;;60.63;26.40;;;;;;;-1.17;85.34;99205.45;1754446;78;21191;-81
2021/01/22 01:45:13;;;;;;;62.08;28.73;;;;;;;-1.43;85.58;99175.08;1740899;79;21162;31
2021/01/22 01:47:41;;;;;;;65.22;26.33;;;;;;;-1.41;84.62;99180.22;1707127;83;21133;-82
2021/01/22 01:53:46;;;;;;;72.92;26.60;;;;;;;-1.45;84.90;99172.91;1742231;79;21264;31
2021/01/22 01:56:26;;;;;;;68.67;29.67;;;;;;;-1.46;85.79;99166.48;1723428;80;21243;31
2021/01/22 01:59:07;;;;;;;66.42;30.60;;;;;;;-1.42;85.10;99165.31;1769943;78;21238;31
2021/01/22 02:04:58;;;;;;;55.73;24.65;;;;;;;-1.38;85.07;99155.20;1704933;81;21187;31
2021/01/22 02:13:44;;;;;;;62.40;25.55;;;;;;;-1.44;85.54;99160.59;1733590;80;21180;31
2021/01/22 02:29:13;;;;;;;53.23;26.52;;;;;;;-1.46;85.12;99150.77;1731345;80;21213;31
2021/01/22 02:31:54;;;;;;;62.67;26.83;;;;;;;-1.44;85.88;99136.78;1754166;78;21236;31
2021/01/22 02:34:26;;;;;;;64.10;26.60;;;;;;;-1.43;85.39;99124.50;1726323;78;21230;-83
2021/01/22 02:37:05;;;;;;;74.30;26.80;;;;;;;-1.42;85.65;99123.23;1766715;78;21191;31
2021/01/22 02:42:57;;;;;;;61.15;26.30;;;;;;;-1.36;85.80;99121.24;1771077;78;21196;31
2021/01/22 03:08:43;;;;;;;51.55;24.67;;;;;;;-1.17;85.37;99108.51;1751990;79;22460;31
2021/01/22 03:11:23;;;;;;;71.35;28.12;;;;;;;-1.17;84.93;99100.85;1723484;79;21581;31
2021/01/22 03:13:55;;;;;;;64.07;25.27;;;;;;;-1.14;85.10;99103.45;1759089;78;22917;31
2021/01/22 03:48:50;;;;;;;51.63;24.15;;;;;;;-1.22;86.13;99067.98;1753384;79;21311;31
2021/01/22 04:03:58;;;;;;;56.00;23.32;;;;;;;-1.50;85.85;99072.48;1696917;79;21202;-84
2021/01/22 04:06:33;;;;;;;54.13;22.87;;;;;;;-1.51;85.37;99072.05;1747282;78;21227;31
2021/01/22 04:25:03;;;;;;;90.62;29.85;;;;;;;-1.53;85.75;99067.33;1764687;78;21209;31
2021/01/22 04:27:31;;;;;;;74.92;27.00;;;;;;;-1.53;85.73;99057.52;1730467;83;21292;-85
2021/01/22 04:33:14;;;;;;;66.72;25.30;;;;;;;-1.55;85.57;99060.05;1749930;77;22794;31
2021/01/22 04:35:48;;;;;;;83.62;29.45;;;;;;;-1.55;85.55;99052.80;1767808;78;21203;31
2021/01/22 04:41:37;;;;;;;58.87;24.43;;;;;;;-1.57;86.12;99058.27;1739210;79;21308;31
2021/01/22 04:44:29;;;;;;;56.02;23.47;;;;;;;-1.56;85.51;99051.09;1762774;78;21223;31
2021/01/22 04:47:14;;;;;;;58.47;26.07;;;;;;;-1.61;85.93;99044.20;1761865;78;21306;31
2021/01/22 04:52:51;;;;;;;64.47;28.25;;;;;;;-1.65;85.24;99048.78;1735372;78;21140;-78
2021/01/22 04:58:33;;;;;;;70.70;30.57;;;;;;;-1.71;85.25;99042.66;1749432;78;22553;-78
2021/01/22 05:04:05;;;;;;;60.50;25.43;;;;;;;-1.80;85.89;99056.06;1755586;78;21133;-83
2021/01/22 05:13:15;;;;;;;63.92;26.45;;;;;;;-1.89;85.90;99035.06;1722775;79;21501;31
2021/01/22 05:25:31;;;;;;;74.80;27.80;;;;;;;-1.81;86.26;99033.55;1722881;79;22912;31
2021/01/22 05:28:06;;;;;;;76.80;30.32;;;;;;;-1.78;86.35;99034.44;1722528;79;22438;31
2021/01/22 05:30:46;;;;;;;76.92;28.85;;;;;;;-1.74;86.29;99031.14;1700494;80;21213;31
2021/01/22 05:36:48;;;;;;;72.30;28.90;;;;;;;-1.64;86.28;99025.42;1763884;78;21148;31
2021/01/22 05:39:30;;;;;;;62.10;25.20;;;;;;;-1.59;86.24;99014.92;1752793;78;21191;31
2021/01/22 06:06:44;;;;;;;55.55;22.32;;;;;;;-0.99;86.31;98991.93;1744461;78;21508;-83
2021/01/22 06:19:04;;;;;;;80.70;35.43;;;;;;;-0.72;86.12;98995.40;1770842;79;21155;-82
2021/01/22 06:21:52;;;;;;;87.20;36.70;;;;;;;-0.70;86.02;98991.18;1754928;78;21160;-82
2021/01/22 06:24:20;;;;;;;74.82;31.10;;;;;;;-0.69;85.98;98983.12;1699617;81;21185;-83
2021/01/22 06:26:50;;;;;;;82.62;33.13;;;;;;;-0.68;85.87;98989.52;1747643;79;21260;-83
2021/01/22 06:35:38;;;;;;;75.22;30.62;;;;;;;-0.75;85.22;98985.57;1780092;78;21170;-81
2021/01/22 06:41:26;;;;;;;89.83;33.38;;;;;;;-0.72;87.34;98980.08;1744965;80;21205;-83
2021/01/22 06:57:09;;;;;;;70.85;30.08;;;;;;;-0.81;85.77;99005.46;1693794;80;21255;31
2021/01/22 07:09:00;;;;;;;72.47;29.65;;;;;;;-0.94;85.84;99019.66;1762263;79;22827;-82
2021/01/22 07:11:50;;;;;;;71.75;29.60;;;;;;;-0.89;86.73;99019.77;1724581;81;21523;-83
2021/01/22 07:14:36;;;;;;;64.75;29.07;;;;;;;-0.84;86.43;99020.70;1735428;80;21236;-84
2021/01/22 07:23:42;;;;;;;121.07;48.17;;;;;;;-0.72;86.35;99006.89;1733802;79;21141;-82
2021/01/22 07:26:11;;;;;;;116.82;43.78;;;;;;;-0.67;86.46;99005.72;1740305;79;21294;-80
2021/01/22 07:32:09;;;;;;;88.90;39.40;;;;;;;-0.67;85.84;99004.02;1698323;79;22828;31
2021/01/22 07:40:59;;;;;;;126.62;47.10;;;;;;;-0.66;86.01;99013.41;1729323;79;21218;-82
2021/01/22 07:46:56;;;;;;;99.87;33.30;;;;;;;-0.66;85.71;99012.14;1712418;78;21223;31
2021/01/22 07:52:09;;;;;;;82.02;36.80;;;;;;;-0.68;85.58;99002.28;1678358;79;21138;-81
2021/01/22 07:54:41;;;;;;;91.02;39.88;;;;;;;-0.59;85.58;99013.52;1764771;79;21111;-84
2021/01/22 07:57:20;;;;;;;76.55;35.55;;;;;;;-0.57;85.77;99004.20;1757269;78;21267;31
2021/01/22 07:59:50;;;;;;;79.50;35.50;;;;;;;-0.53;85.81;99004.70;1706431;81;21296;-79
2021/01/22 08:02:23;;;;;;;75.37;32.90;;;;;;;-0.49;85.96;99005.19;1719305;79;21236;-81
2021/01/22 08:05:09;;;;;;;87.35;38.70;;;;;;;-0.46;85.92;99003.55;1755565;78;21135;-81
2021/01/22 08:07:41;;;;;;;81.45;35.95;;;;;;;-0.38;86.45;99002.81;1746188;77;21205;-79
2021/01/22 08:10:13;;;;;;;115.08;49.77;;;;;;;-0.28;86.27;99007.23;1637609;78;22634;31
2021/01/22 08:16:04;;;;;;;100.13;42.93;;;;;;;-0.13;85.83;99000.26;1702242;79;21665;31
2021/01/22 08:18:34;;;;;;;112.00;46.95;;;;;;;-0.08;85.73;99005.89;1754030;79;21213;-80
2021/01/22 08:21:03;;;;;;;88.50;32.38;;;;;;;-0.02;85.64;98999.59;1763154;79;21317;-84
2021/01/22 08:23:32;;;;;;;88.25;38.38;;;;;;;0.05;85.27;98999.69;1776720;76;21276;-81
2021/01/22 08:29:11;;;;;;;71.05;33.95;;;;;;;0.22;85.45;98994.81;1752030;77;21102;-83
2021/01/22 08:31:41;;;;;;;66.47;30.97;;;;;;;0.34;85.27;98989.91;1775105;77;21251;31
2021/01/22 08:34:13;;;;;;;72.20;30.80;;;;;;;0.43;85.15;98984.90;1766605;79;21301;31
2021/01/22 08:36:41;;;;;;;85.53;39.20;;;;;;;0.53;85.17;98979.48;1795527;78;21323;-84
2021/01/22 08:42:14;;;;;;;97.57;42.08;;;;;;;0.72;84.75;98979.33;1766429;80;21279;-83
2021/01/22 08:45:04;;;;;;;113.12;51.13;;;;;;;0.83;84.86;98979.02;1774763;80;21192;-85
2021/01/22 08:47:42;;;;;;;74.92;32.83;;;;;;;0.92;84.72;98963.78;1714887;79;21776;-82
2021/01/22 08:50:16;;;;;;;67.97;28.40;;;;;;;1.01;84.48;98966.84;1680507;83;21257;-84
2021/01/22 08:56:12;;;;;;;64.80;29.25;;;;;;;1.22;84.29;98973.06;1706941;79;21298;-87
2021/01/22 08:59:07;;;;;;;91.22;40.63;;;;;;;1.34;83.79;98971.47;1706379;79;21309;-82
2021/01/22 09:01:54;;;;;;;56.53;24.75;;;;;;;1.43;83.35;98963.01;1709448;79;21296;-81
2021/01/22 09:04:31;;;;;;;60.28;26.70;;;;;;;1.51;83.07;98965.64;1701514;79;21287;-83
2021/01/22 09:07:04;;;;;;;60.67;26.12;;;;;;;1.57;83.33;98960.57;1717094;79;21262;-82
2021/01/22 09:09:47;;;;;;;68.42;29.23;;;;;;;1.64;83.17;98959.80;1695298;83;21246;-83
2021/01/22 09:12:27;;;;;;;66.65;30.52;;;;;;;1.70;83.09;98953.44;1696234;80;22351;-83
2021/01/22 09:15:01;;;;;;;74.30;31.48;;;;;;;1.81;83.21;98956.50;1715537;79;21249;-81
2021/01/22 09:17:43;;;;;;;74.32;31.23;;;;;;;1.88;82.74;98963.41;1739726;79;21366;-83
2021/01/22 09:20:22;;;;;;;80.22;35.73;;;;;;;1.99;83.31;98951.53;1744786;79;21553;-84
2021/01/22 09:33:22;;;;;;;61.37;28.70;;;;;;;2.32;81.90;98925.22;1777088;78;23447;-91
2021/01/22 09:35:52;;;;;;;66.20;30.35;;;;;;;2.34;82.34;98917.53;1799078;79;21666;-90
2021/01/22 09:38:20;;;;;;;71.77;32.03;;;;;;;2.42;81.98;98919.70;1796493;78;21299;-89
2021/01/22 09:40:49;;;;;;;72.67;32.55;;;;;;;2.49;81.54;98920.18;1798629;79;21252;-90
2021/01/22 09:43:17;;;;;;;74.10;33.98;;;;;;;2.59;81.91;98910.81;1787732;77;21177;-89
2021/01/22 09:45:45;;;;;;;76.87;37.28;;;;;;;2.70;81.96;98905.71;1748437;79;21182;-90
2021/01/22 09:48:16;;;;;;;106.05;43.63;;;;;;;2.78;81.31;98904.02;1751686;80;21295;-90
2021/01/22 09:50:43;;;;;;;82.12;35.92;;;;;;;2.89;81.54;98897.22;1699993;81;21165;-90
2021/01/22 09:53:11;;;;;;;74.62;35.88;;;;;;;3.09;81.68;98895.13;1703142;84;21168;-91
2021/01/22 09:55:41;;;;;;;82.05;35.25;;;;;;;3.24;80.84;98889.98;1733150;78;21313;-89
2021/01/22 09:58:08;;;;;;;69.95;32.48;;;;;;;3.36;81.50;98890.02;1726909;81;21162;-89
2021/01/22 10:00:37;;;;;;;67.23;31.53;;;;;;;3.46;80.50;98892.58;1729311;81;21169;-89
2021/01/22 10:03:05;;;;;;;68.25;29.42;;;;;;;3.53;80.17;98890.02;1745134;80;21544;-91
2021/01/22 10:05:35;;;;;;;61.92;26.57;;;;;;;3.61;80.64;98885.31;1790433;77;21194;-91
2021/01/22 10:08:03;;;;;;;59.88;26.33;;;;;;;3.64;78.79;98886.17;1759076;80;21754;-92
2021/01/22 10:10:31;;;;;;;53.73;26.77;;;;;;;3.70;80.04;98870.73;1802007;78;21245;-93
2021/01/22 10:13:17;;;;;;;60.03;27.90;;;;;;;3.71;78.90;98876.30;1735731;80;21171;-91
2021/01/22 10:15:46;;;;;;;53.35;26.80;;;;;;;3.77;79.07;98871.58;1736861;81;21188;-91
2021/01/22 10:18:14;;;;;;;48.42;22.32;;;;;;;3.72;78.53;98860.42;1737862;82;21163;-92
2021/01/22 10:20:54;;;;;;;36.40;18.70;;;;;;;3.88;79.78;98862.55;1689182;84;21245;-92
2021/01/22 10:23:22;;;;;;;37.15;18.60;;;;;;;3.95;77.81;98859.12;1658398;85;21369;-91
2021/01/22 10:25:50;;;;;;;44.10;19.70;;;;;;;3.99;77.83;98854.39;1673952;84;21215;-92
2021/01/22 10:28:18;;;;;;;42.95;20.00;;;;;;;4.03;78.38;98849.66;1659042;85;21306;-92
2021/01/22 10:31:08;;;;;;;46.30;20.50;;;;;;;4.12;78.46;98841.08;1673023;84;21163;-92
2021/01/22 10:33:38;;;;;;;38.90;20.23;;;;;;;4.21;78.49;98838.89;1647218;86;21129;-90
2021/01/22 10:36:38;;;;;;;43.98;20.50;;;;;;;4.31;77.11;98837.55;1725415;80;21169;-91
2021/01/22 10:39:07;;;;;;;35.30;18.25;;;;;;;4.45;77.49;98837.50;1726393;81;21501;-90
2021/01/22 10:41:34;;;;;;;40.03;19.87;;;;;;;4.32;77.68;98795.97;1758164;81;21172;-93
2021/01/22 10:44:13;;;;;;;37.65;20.50;;;;;;;4.62;75.98;98827.57;1640231;87;21217;-91
2021/01/22 10:46:42;;;;;;;43.55;20.90;;;;;;;4.73;77.01;98820.17;1636595;86;21211;-93
2021/01/22 10:49:21;;;;;;;43.58;22.10;;;;;;;4.82;76.81;98810.71;1636687;86;21799;-92
2021/01/22 10:51:49;;;;;;;46.80;21.48;;;;;;;4.93;74.74;98805.91;1651888;85;21179;-91
2021/01/22 10:54:17;;;;;;;52.03;25.52;;;;;;;5.07;75.29;98796.77;1643184;85;21218;-92
2021/01/22 10:56:46;;;;;;;54.75;27.60;;;;;;;5.20;74.66;98795.41;1620249;85;21184;-91
2021/01/22 10:59:14;;;;;;;53.87;26.68;;;;;;;5.36;74.35;98798.27;1648777;85;21201;-92
2021/01/22 11:01:42;;;;;;;53.15;28.42;;;;;;;5.49;73.86;98791.26;1703341;83;21320;-91
2021/01/22 11:04:12;;;;;;;64.82;34.70;;;;;;;5.67;74.30;98780.78;1724978;81;21133;-91
2021/01/22 11:06:40;;;;;;;63.92;29.98;;;;;;;5.81;75.54;98784.51;1688853;83;21188;-88
2021/01/22 11:09:08;;;;;;;40.10;20.30;;;;;;;5.93;75.05;98783.08;1660771;85;21153;-90
2021/01/22 11:11:36;;;;;;;49.80;21.10;;;;;;;6.12;73.43;98776.44;1664431;85;21203;-91
2021/01/22 11:14:04;;;;;;;41.80;19.05;;;;;;;6.32;75.89;98778.31;1673510;85;21373;-93
2021/01/22 11:16:40;;;;;;;45.67;18.32;;;;;;;6.52;71.36;98761.70;1654749;85;21190;-91
2021/01/22 11:19:08;;;;;;;40.52;18.02;;;;;;;6.76;72.14;98754.91;1635517;85;21200;-92
2021/01/22 11:21:36;;;;;;;38.60;17.82;;;;;;;7.02;70.18;98756.66;1639959;85;21525;-92
2021/01/22 11:24:05;;;;;;;30.85;15.32;;;;;;;7.24;69.79;98755.44;1628751;87;21308;-92
2021/01/22 11:26:47;;;;;;;33.40;14.55;;;;;;;7.42;70.97;98744.34;1660409;85;21180;-93
2021/01/22 11:29:34;;;;;;;22.77;11.70;;;;;;;7.65;70.13;98745.22;1672768;85;21177;-92
2021/01/22 11:32:05;;;;;;;23.50;12.13;;;;;;;7.85;67.43;98742.25;1677767;82;21196;-92
2021/01/22 11:34:41;;;;;;;22.70;11.00;;;;;;;7.94;68.96;98741.63;1723920;80;21152;-91
2021/01/22 11:40:37;;;;;;;21.45;11.25;;;;;;;8.24;65.96;98737.16;1705918;79;21178;-92
2021/01/22 11:43:06;;;;;;;36.28;18.50;;;;;;;8.41;65.99;98731.59;1687896;84;21139;-92
2021/01/22 11:45:53;;;;;;;38.88;19.10;;;;;;;8.55;67.39;98721.80;1707385;81;22623;-91
2021/01/22 11:48:21;;;;;;;29.85;15.00;;;;;;;8.66;65.74;98724.16;1764577;81;21395;-93
2021/01/22 11:50:49;;;;;;;55.35;16.07;;;;;;;8.76;65.11;98712.68;1774459;81;21317;-92
2021/01/22 11:53:16;;;;;;;33.23;15.05;;;;;;;8.87;65.33;98706.80;1778340;80;21644;-91
2021/01/22 11:55:44;;;;;;;29.85;15.30;;;;;;;8.99;63.00;98705.63;1772522;81;21307;-92
2021/01/22 11:58:12;;;;;;;29.23;15.23;;;;;;;9.14;64.90;98709.59;1772572;81;21959;-91
2021/01/22 12:01:01;;;;;;;35.65;15.03;;;;;;;9.21;64.22;98705.96;1757378;80;21226;-92
2021/01/22 12:03:30;;;;;;;30.50;14.47;;;;;;;9.32;63.97;98703.08;1752168;81;21701;-91
2021/01/22 12:05:58;;;;;;;36.83;14.87;;;;;;;9.32;60.36;98696.13;1756124;81;21785;-91
2021/01/22 12:08:25;;;;;;;42.75;15.35;;;;;;;9.40;63.02;98693.80;1753060;81;21310;-90
2021/01/22 12:10:53;;;;;;;35.40;15.35;;;;;;;9.48;64.67;98699.17;1752266;79;21279;-89
2021/01/22 12:13:21;;;;;;;35.40;15.98;;;;;;;9.50;61.04;98700.44;1748693;81;21184;-89
2021/01/22 12:15:49;;;;;;;32.67;14.90;;;;;;;9.54;62.67;98695.56;1716818;79;21259;-91
2021/01/22 12:18:17;;;;;;;29.42;14.23;;;;;;;9.47;57.42;98697.48;1753011;82;21253;-92
2021/01/22 12:20:45;;;;;;;28.23;14.50;;;;;;;9.14;58.06;98663.75;1751379;82;21766;-92
2021/01/22 12:23:13;;;;;;;31.95;14.03;;;;;;;9.28;60.77;98680.25;1754135;80;21683;-90
2021/01/22 12:25:45;;;;;;;25.70;13.62;;;;;;;9.31;60.20;98677.59;1738884;82;21161;-91
2021/01/22 12:28:28;;;;;;;26.68;15.38;;;;;;;9.40;59.65;98678.23;1691059;84;21363;-91
2021/01/22 12:30:56;;;;;;;39.13;19.02;;;;;;;9.54;60.91;98669.16;1680272;83;21153;-90
2021/01/22 12:33:25;;;;;;;43.42;21.23;;;;;;;9.68;63.30;98662.28;1685156;83;21291;-85
2021/01/22 12:36:04;;;;;;;38.88;20.55;;;;;;;9.66;59.91;98677.05;1669281;85;21161;-85
2021/01/22 12:38:45;;;;;;;43.17;20.00;;;;;;;9.71;60.39;98673.89;1705550;80;21078;-86
2021/01/22 12:45:27;;;;;;;37.55;19.20;;;;;;;9.59;58.44;98664.28;1650211;84;21267;-85
2021/01/22 12:48:03;;;;;;;39.75;20.00;;;;;;;9.42;60.86;98669.50;1683649;83;21307;-84
2021/01/22 12:51:18;;;;;;;41.92;18.60;;;;;;;9.31;60.70;98654.66;1687381;83;21335;-86
2021/01/22 12:57:34;;;;;;;43.33;19.55;;;;;;;9.21;60.89;98649.32;1690761;83;21194;-93
2021/01/22 13:00:16;;;;;;;40.33;19.17;;;;;;;9.22;62.52;98648.44;1668110;80;21335;-86
2021/01/22 13:03:10;;;;;;;;;;;;;;;9.37;62.01;98644.15;1654200;83;21277;-86
2021/01/22 13:06:13;;;;;;;38.45;19.02;;;;;;;9.90;58.43;98653.42;1655215;86;20199;-87
2021/01/22 13:09:09;;;;;;;38.10;18.67;;;;;;;10.46;57.21;98641.38;1647793;84;21200;-86
2021/01/22 13:11:58;;;;;;;38.90;22.15;;;;;;;10.90;56.12;98643.84;1672276;84;21206;-86
2021/01/22 13:14:47;;;;;;;39.50;22.85;;;;;;;11.26;57.46;98641.31;1687683;84;21148;-87
2021/01/22 13:17:30;;;;;;;45.55;22.25;;;;;;;11.75;53.56;98629.97;1798856;77;23065;-93
2021/01/22 13:19:57;;;;;;;54.27;22.82;;;;;;;12.15;51.73;98623.73;1803624;78;21246;-91
2021/01/22 13:22:51;;;;;;;53.78;26.75;;;;;;;12.77;53.21;98619.50;1792750;78;21723;-92
2021/01/22 13:26:05;;;;;;;50.08;25.72;;;;;;;13.32;56.08;98609.34;1767904;81;21217;-92
2021/01/22 13:28:33;;;;;;;62.27;23.70;;;;;;;13.42;53.26;98609.79;1763253;81;21173;-91
2021/01/22 13:31:04;;;;;;;41.50;22.60;;;;;;;13.38;51.31;98603.02;1766567;81;21144;-92
2021/01/22 13:33:35;;;;;;;38.45;20.50;;;;;;;13.31;50.03;98615.97;1745542;80;21121;-87
2021/01/22 13:40:02;;;;;;;42.08;23.02;;;;;;;12.80;53.31;98617.24;1733374;80;21182;-93
2021/01/22 13:42:31;;;;;;;46.60;23.85;;;;;;;12.20;49.70;98613.99;1724279;81;21263;-91
2021/01/22 13:44:58;;;;;;;59.77;26.30;;;;;;;11.96;51.67;98603.20;1722494;82;21384;-93
2021/01/22 13:47:26;;;;;;;52.17;26.02;;;;;;;11.84;52.58;98614.48;1715548;83;21274;-93
2021/01/22 13:49:55;;;;;;;54.10;26.40;;;;;;;11.66;54.50;98613.41;1722775;82;21133;-91
2021/01/22 13:52:23;;;;;;;54.80;30.05;;;;;;;11.36;52.55;98610.19;1719699;82;21893;-92
2021/01/22 13:54:51;;;;;;;55.50;30.60;;;;;;;11.14;53.56;98615.27;1726055;83;21196;-92
2021/01/22 13:57:19;;;;;;;68.78;30.10;;;;;;;10.89;55.24;98612.69;1721319;82;21167;-93
2021/01/22 13:59:57;;;;;;;55.10;30.00;;;;;;;10.62;55.66;98619.64;1633469;81;21344;-92
2021/01/22 14:02:26;;;;;;;60.15;31.82;;;;;;;10.24;55.03;98615.20;1688218;80;21181;-95
2021/01/22 14:04:55;;;;;;;65.03;32.38;;;;;;;10.03;55.08;98612.38;1698287;84;21584;-94
2021/01/22 14:07:31;;;;;;;62.27;33.80;;;;;;;9.83;56.34;98614.70;1702185;84;21279;-94
2021/01/22 14:10:18;;;;;;;70.50;32.63;;;;;;;9.64;56.75;98612.66;1680577;81;21268;-94
2021/01/22 14:12:49;;;;;;;70.78;33.48;;;;;;;9.49;57.57;98614.38;1729683;80;21200;-94
2021/01/22 14:15:35;;;;;;;80.75;40.30;;;;;;;9.36;57.93;98605.66;1797066;79;39153;-95
2021/01/22 14:18:04;;;;;;;67.95;35.68;;;;;;;9.27;58.53;98608.52;1818466;78;21144;-94
2021/01/22 14:20:35;;;;;;;67.40;34.75;;;;;;;9.08;59.15;98607.31;1754896;80;21161;-92
2021/01/22 14:23:03;;;;;;;63.17;33.30;;;;;;;8.86;59.72;98610.92;1755543;81;21335;-90
2021/01/22 14:25:31;;;;;;;83.55;36.10;;;;;;;8.71;60.32;98617.33;1751986;81;21165;-90
2021/01/22 14:27:59;;;;;;;71.07;33.48;;;;;;;8.56;60.74;98614.23;1760287;81;21851;-92
2021/01/22 14:30:27;;;;;;;69.15;31.48;;;;;;;8.42;61.16;98616.32;1755643;81;21183;-91
2021/01/22 14:32:55;;;;;;;67.00;31.57;;;;;;;8.26;61.44;98616.25;1757146;81;21305;-91
2021/01/22 14:35:23;;;;;;;67.50;34.73;;;;;;;8.08;61.79;98615.78;1754151;81;21177;-94
2021/01/22 14:37:51;;;;;;;59.98;32.03;;;;;;;7.95;62.36;98610.01;1760981;81;21153;-92
2021/01/22 14:40:19;;;;;;;85.22;37.05;;;;;;;7.85;63.34;98618.02;1755084;81;21844;-92
2021/01/22 14:42:47;;;;;;;77.80;33.30;;;;;;;7.78;63.21;98605.67;1761214;81;21308;-93
2021/01/22 14:45:15;;;;;;;78.65;34.00;;;;;;;7.66;63.34;98601.61;1769968;81;21144;-93
2021/01/22 14:47:44;;;;;;;72.70;34.30;;;;;;;7.56;63.33;98600.09;1744362;80;21184;-93
2021/01/22 14:50:13;;;;;;;77.30;33.75;;;;;;;7.45;63.65;98609.80;1745810;81;21166;-90
2021/01/22 14:52:41;;;;;;;68.57;32.78;;;;;;;7.33;63.88;98603.98;1744229;81;22398;-93
2021/01/22 14:55:09;;;;;;;75.62;33.20;;;;;;;7.22;64.68;98603.78;1786023;80;21463;-87
2021/01/22 14:57:37;;;;;;;81.47;35.98;;;;;;;7.08;64.85;98602.75;1767611;81;21625;-88
2021/01/22 15:00:11;;;;;;;;;;;;;;;6.97;65.25;98602.52;1708050;82;21199;-90
2021/01/22 15:02:41;;;;;;;84.80;32.30;;;;;;;6.83;66.48;98599.34;1709113;82;20203;-91
2021/01/22 15:05:10;;;;;;;73.67;33.65;;;;;;;6.71;66.58;98600.84;1716855;82;21351;-91
2021/01/22 15:07:38;;;;;;;117.35;41.90;;;;;;;6.59;66.78;98595.90;1676530;84;21319;-92
2021/01/22 15:10:09;;;;;;;103.15;40.38;;;;;;;6.48;67.75;98596.06;1716322;81;21306;-92
2021/01/22 15:12:37;;;;;;;110.20;42.40;;;;;;;6.35;67.41;98593.69;1764985;79;21086;-93
2021/01/22 15:15:07;;;;;;;124.65;40.83;;;;;;;6.23;68.36;98602.92;1768046;81;21149;-91
2021/01/22 15:17:35;;;;;;;107.83;40.78;;;;;;;6.10;67.45;98606.11;1716613;81;21161;-93
2021/01/22 15:23:14;;;;;;;133.65;50.28;;;;;;;5.83;68.27;98606.47;1623404;87;21712;-89
2021/01/22 15:25:42;;;;;;;141.00;48.80;;;;;;;5.69;68.71;98601.48;1609059;87;21343;-89
2021/01/22 15:28:10;;;;;;;113.80;45.33;;;;;;;5.55;69.06;98593.52;1609036;87;21259;-88
2021/01/22 15:30:37;;;;;;;110.52;42.80;;;;;;;5.41;69.54;98591.97;1610227;87;21200;-90
2021/01/22 15:33:27;;;;;;;101.62;40.35;;;;;;;5.27;69.29;98594.30;1707739;82;21213;-92
2021/01/22 15:35:55;;;;;;;91.53;38.78;;;;;;;5.14;69.82;98597.88;1688809;84;21168;-88
2021/01/22 15:38:23;;;;;;;86.78;34.92;;;;;;;5.01;70.23;98593.72;1730218;80;21140;-88
2021/01/22 15:40:51;;;;;;;94.92;34.55;;;;;;;4.90;70.67;98593.84;1729438;82;21251;-88
2021/01/22 15:43:19;;;;;;;80.25;31.62;;;;;;;4.78;72.19;98589.67;1728102;82;21171;-91
2021/01/22 15:45:47;;;;;;;90.22;32.93;;;;;;;4.68;70.95;98586.77;1743724;80;21137;-88
2021/01/22 15:48:28;;;;;;;75.32;30.82;;;;;;;4.58;71.75;98585.56;1710194;80;21181;-89
2021/01/22 15:50:57;;;;;;;79.30;31.42;;;;;;;4.49;71.22;98584.34;1754571;79;21375;-85
2021/01/22 15:53:25;;;;;;;85.25;29.02;;;;;;;4.40;71.17;98599.88;1763686;79;21184;-89
2021/01/22 15:55:53;;;;;;;95.03;37.60;;;;;;;4.29;72.32;98598.66;1763577;79;21176;-88
2021/01/22 15:58:21;;;;;;;107.55;40.63;;;;;;;4.24;71.57;98607.27;1776944;80;21263;-84
2021/01/22 16:00:49;;;;;;;111.45;42.73;;;;;;;4.15;72.39;98601.78;1764760;79;21215;-88
2021/01/22 16:03:17;;;;;;;167.85;60.70;;;;;;;4.11;71.93;98605.23;1675502;85;21180;-89
2021/01/22 16:05:45;;;;;;;128.93;49.58;;;;;;;4.06;72.03;98603.99;1713259;82;21145;-88
2021/01/22 16:08:13;;;;;;;150.20;68.00;;;;;;;4.03;74.30;98591.14;1709340;83;21191;-88
2021/01/22 16:10:41;;;;;;;142.50;63.85;;;;;;;4.01;75.49;98586.88;1712005;82;21698;-89
2021/01/22 16:13:09;;;;;;;171.93;60.70;;;;;;;4.02;74.49;98591.14;1752919;80;22032;-88
2021/01/22 16:15:37;;;;;;;173.02;68.78;;;;;;;4.01;75.25;98585.15;1769079;80;21170;-89
2021/01/22 16:18:06;;;;;;;150.18;60.67;;;;;;;4.02;74.72;98594.59;1775861;80;21155;-87
2021/01/22 16:21:04;;;;;;;157.65;66.95;;;;;;;4.02;74.46;98587.28;1697866;82;21277;-91
2021/01/22 16:26:33;;;;;;;210.65;82.35;;;;;;;3.95;73.87;98603.20;1719679;82;21277;-94
2021/01/22 16:29:04;;;;;;;132.20;56.88;;;;;;;3.91;73.76;98598.94;1750811;80;21702;-93
2021/01/22 16:31:37;;;;;;;138.10;58.10;;;;;;;3.87;74.65;98613.97;1756341;80;21252;-93
2021/01/22 16:34:06;;;;;;;139.12;55.58;;;;;;;3.79;74.98;98608.42;1785636;78;21289;-93
2021/01/22 16:36:34;;;;;;;152.12;63.83;;;;;;;3.72;74.87;98603.32;1781899;78;21272;-92
2021/01/22 16:39:08;;;;;;;158.05;65.55;;;;;;;3.64;75.07;98603.80;1798567;78;21335;-93
2021/01/22 16:41:48;;;;;;;107.27;45.70;;;;;;;3.54;76.10;98602.98;1772743;79;21159;-92
2021/01/22 16:44:16;;;;;;;95.28;40.90;;;;;;;3.37;74.05;98594.92;1768038;80;21145;-91
2021/01/22 16:46:48;;;;;;;90.00;37.45;;;;;;;3.27;75.26;98591.98;1758591;80;21155;-91
2021/01/22 16:49:16;;;;;;;90.03;37.23;;;;;;;3.18;75.62;98590.71;1734378;78;21929;-83
2021/01/22 16:51:44;;;;;;;70.20;31.73;;;;;;;3.07;75.58;98588.63;1734397;81;21306;-82
2021/01/22 16:54:12;;;;;;;71.22;32.93;;;;;;;2.96;76.08;98588.23;1727005;82;21319;-79
2021/01/22 16:56:41;;;;;;;140.47;59.23;;;;;;;2.91;76.10;98587.81;1728472;81;21194;-82
2021/01/22 16:59:09;;;;;;;168.00;80.70;;;;;;;2.83;74.81;98589.11;1740979;80;21750;-81
2021/01/22 17:01:37;;;;;;;237.45;106.00;;;;;;;2.79;75.73;98584.84;1738069;82;21576;-81
2021/01/22 17:04:06;;;;;;;226.55;101.42;;;;;;;2.76;76.92;98579.27;1718016;80;21240;-84
2021/01/22 17:06:34;;;;;;;188.20;86.63;;;;;;;2.71;78.22;98588.70;1740991;81;21235;-81
2021/01/22 17:09:03;;;;;;;180.57;80.50;;;;;;;2.68;76.31;98589.13;1751583;81;21255;-84
2021/01/22 17:11:31;;;;;;;196.80;87.40;;;;;;;2.67;76.54;98583.16;1714533;79;21895;-82
2021/01/22 17:13:58;;;;;;;182.78;84.20;;;;;;;2.66;76.37;98583.14;1682995;85;21366;-84
2021/01/22 17:16:26;;;;;;;158.65;78.57;;;;;;;2.65;77.36;98593.00;1704025;79;22134;-89
2021/01/22 17:18:55;;;;;;;187.85;95.72;;;;;;;2.64;77.72;98592.13;1763903;79;21136;-90
2021/01/22 17:21:23;;;;;;;187.03;93.97;;;;;;;2.63;77.78;98595.56;1763127;79;21147;-89
2021/01/22 17:23:51;;;;;;;180.35;91.08;;;;;;;2.62;77.66;98598.97;1762600;79;21152;-90
2021/01/22 17:26:18;;;;;;;182.65;90.77;;;;;;;2.58;77.31;98596.83;1773423;79;21303;-90
2021/01/22 17:28:46;;;;;;;173.90;81.95;;;;;;;2.54;77.47;98598.13;1765726;79;21322;-91
2021/01/22 17:31:14;;;;;;;146.00;65.90;;;;;;;2.48;78.02;98613.09;1762683;80;21514;-88
2021/01/22 17:33:42;;;;;;;164.13;67.35;;;;;;;2.41;76.45;98611.81;1763430;79;21259;-80
2021/01/22 17:36:11;;;;;;;170.28;68.75;;;;;;;2.33;78.08;98607.98;1771722;80;21220;-82
2021/01/22 17:38:39;;;;;;;184.15;74.22;;;;;;;2.27;78.49;98606.67;1772319;78;21236;-82
2021/01/22 17:41:06;;;;;;;171.68;68.90;;;;;;;2.25;78.21;98608.39;1765557;78;21141;-81
2021/01/22 17:43:37;;;;;;;178.60;70.37;;;;;;;2.22;78.96;98608.41;1777961;78;21302;-81
2021/01/22 17:46:05;;;;;;;174.10;69.05;;;;;;;2.21;77.97;98609.23;1764076;78;21321;-80
2021/01/22 17:48:33;;;;;;;170.62;70.62;;;;;;;2.19;78.59;98606.27;1787453;78;21277;-82
2021/01/22 17:51:00;;;;;;;172.78;72.08;;;;;;;2.21;79.27;98608.84;1755414;77;21143;-81
2021/01/22 17:53:28;;;;;;;156.80;65.92;;;;;;;2.22;79.00;98604.55;1751990;79;21244;-83
2021/01/22 17:55:56;;;;;;;115.25;52.25;;;;;;;2.19;78.83;98608.83;1747224;79;21296;-81
2021/01/22 17:58:24;;;;;;;108.87;47.10;;;;;;;2.17;78.88;98604.13;1749199;81;21261;-81